sensor_id;sensor_type;location;lat;lon;timestamp;temperature;humidity
21849;DHT22;11089;49.852;19.700;2022-09-27T00:00:26;10.00;99.90
21849;DHT22;11089;49.852;19.700;2022-09-27T00:03:28;9.90;99.90
21849;DHT22;11089;49.852;19.700;2022-09-27T00:06:30;9.80;99.90
21849;DHT22;11089;49.852;19.700;2022-09-27T00:09:32;9.70;99.90
21849;DHT22;11089;49.852;19.700;2022-09-27T00:12:34;9.70;99.90
21849;DHT22;11089;49.852;19.700;2022-09-27T00:15:35;9.70;99.90
21849;DHT22;11089;49.852;19.700;2022-09-27T00:18:36;9.70;99.90
21849;DHT22;11089;49.852;19.700;2022-09-27T00:21:37;9.70;99.90
21849;DHT22;11089;49.852;19.700;2022-09-27T00:24:38;9.80;99.90
21849;DHT22;11089;49.852;19.700;2022-09-27T00:27:39;9.70;99.90
21849;DHT22;11089;49.852;19.700;2022-09-27T00:30:42;9.70;99.90
21849;DHT22;11089;49.852;19.700;2022-09-27T00:33:43;9.70;99.90
21849;DHT22;11089;49.852;19.700;2022-09-27T00:36:44;9.60;99.90
21849;DHT22;11089;49.852;19.700;2022-09-27T00:39:45;9.60;99.90
21849;DHT22;11089;49.852;19.700;2022-09-27T00:42:46;9.50;99.90
21849;DHT22;11089;49.852;19.700;2022-09-27T00:45:59;9.50;99.90
21849;DHT22;11089;49.852;19.700;2022-09-27T00:52:31;9.40;99.90
21849;DHT22;11089;49.852;19.700;2022-09-27T00:55:47;9.20;99.90
21849;DHT22;11089;49.852;19.700;2022-09-27T00:58:58;9.10;99.90
21849;DHT22;11089;49.852;19.700;2022-09-27T01:02:03;9.00;99.90
21849;DHT22;11089;49.852;19.700;2022-09-27T01:05:08;9.10;99.90
21849;DHT22;11089;49.852;19.700;2022-09-27T01:08:09;9.00;99.90
21849;DHT22;11089;49.852;19.700;2022-09-27T01:11:33;8.90;99.90
21849;DHT22;11089;49.852;19.700;2022-09-27T01:32:01;8.70;98.70
21849;DHT22;11089;49.852;19.700;2022-09-27T01:35:02;8.80;97.20
21849;DHT22;11089;49.852;19.700;2022-09-27T01:38:22;8.70;99.90
21849;DHT22;11089;49.852;19.700;2022-09-27T01:45:12;8.70;99.10
21849;DHT22;11089;49.852;19.700;2022-09-27T01:48:22;8.60;96.80
21849;DHT22;11089;49.852;19.700;2022-09-27T01:51:57;8.50;99.90
21849;DHT22;11089;49.852;19.700;2022-09-27T01:55:01;8.60;99.90
21849;DHT22;11089;49.852;19.700;2022-09-27T02:01:27;8.40;99.90
21849;DHT22;11089;49.852;19.700;2022-09-27T02:04:31;8.50;98.90
21849;DHT22;11089;49.852;19.700;2022-09-27T02:07:38;8.40;96.60
21849;DHT22;11089;49.852;19.700;2022-09-27T02:10:42;8.40;95.10
21849;DHT22;11089;49.852;19.700;2022-09-27T02:20:17;8.30;99.90
21849;DHT22;11089;49.852;19.700;2022-09-27T02:26:40;8.10;99.90
21849;DHT22;11089;49.852;19.700;2022-09-27T02:30:11;8.20;95.00
21849;DHT22;11089;49.852;19.700;2022-09-27T02:33:13;8.20;91.70
21849;DHT22;11089;49.852;19.700;2022-09-27T02:36:14;8.20;82.50
21849;DHT22;11089;49.852;19.700;2022-09-27T02:39:16;8.20;83.80
21849;DHT22;11089;49.852;19.700;2022-09-27T02:42:18;8.20;93.00
21849;DHT22;11089;49.852;19.700;2022-09-27T02:45:19;8.00;99.90
21849;DHT22;11089;49.852;19.700;2022-09-27T02:55:13;8.20;99.90
21849;DHT22;11089;49.852;19.700;2022-09-27T03:01:50;8.10;99.90
21849;DHT22;11089;49.852;19.700;2022-09-27T03:05:02;8.00;99.90
21849;DHT22;11089;49.852;19.700;2022-09-27T03:08:06;8.00;98.70
21849;DHT22;11089;49.852;19.700;2022-09-27T03:11:07;7.80;95.70
21849;DHT22;11089;49.852;19.700;2022-09-27T03:14:08;7.80;98.70
21849;DHT22;11089;49.852;19.700;2022-09-27T03:17:09;7.70;98.20
21849;DHT22;11089;49.852;19.700;2022-09-27T03:20:10;7.80;99.90
21849;DHT22;11089;49.852;19.700;2022-09-27T03:23:11;7.80;99.90
21849;DHT22;11089;49.852;19.700;2022-09-27T03:26:12;7.80;99.50
21849;DHT22;11089;49.852;19.700;2022-09-27T03:29:13;7.80;99.90
21849;DHT22;11089;49.852;19.700;2022-09-27T03:32:14;7.80;95.10
21849;DHT22;11089;49.852;19.700;2022-09-27T03:35:15;7.90;94.10
21849;DHT22;11089;49.852;19.700;2022-09-27T03:38:16;7.80;99.10
21849;DHT22;11089;49.852;19.700;2022-09-27T03:41:17;8.00;99.90
21849;DHT22;11089;49.852;19.700;2022-09-27T03:44:18;8.00;99.90
21849;DHT22;11089;49.852;19.700;2022-09-27T03:47:19;7.90;99.90
21849;DHT22;11089;49.852;19.700;2022-09-27T03:50:20;8.10;99.90
21849;DHT22;11089;49.852;19.700;2022-09-27T03:53:21;7.90;99.90
21849;DHT22;11089;49.852;19.700;2022-09-27T03:56:22;8.00;99.90
21849;DHT22;11089;49.852;19.700;2022-09-27T03:59:23;8.20;99.90
21849;DHT22;11089;49.852;19.700;2022-09-27T04:02:25;8.40;99.90
21849;DHT22;11089;49.852;19.700;2022-09-27T04:05:27;8.50;99.90
21849;DHT22;11089;49.852;19.700;2022-09-27T04:08:29;8.30;99.90
21849;DHT22;11089;49.852;19.700;2022-09-27T04:11:30;8.10;99.90
21849;DHT22;11089;49.852;19.700;2022-09-27T04:14:31;7.90;99.90
21849;DHT22;11089;49.852;19.700;2022-09-27T04:17:31;7.90;99.90
21849;DHT22;11089;49.852;19.700;2022-09-27T04:20:33;7.90;99.90
21849;DHT22;11089;49.852;19.700;2022-09-27T04:23:34;7.90;99.90
21849;DHT22;11089;49.852;19.700;2022-09-27T04:26:36;7.90;99.90
21849;DHT22;11089;49.852;19.700;2022-09-27T04:29:37;7.80;99.90
21849;DHT22;11089;49.852;19.700;2022-09-27T04:32:43;7.80;99.90
21849;DHT22;11089;49.852;19.700;2022-09-27T04:35:44;7.70;99.90
21849;DHT22;11089;49.852;19.700;2022-09-27T04:39:01;7.70;99.90
21849;DHT22;11089;49.852;19.700;2022-09-27T04:42:02;7.80;99.90
21849;DHT22;11089;49.852;19.700;2022-09-27T04:45:04;7.80;99.90
21849;DHT22;11089;49.852;19.700;2022-09-27T04:48:05;7.70;99.90
21849;DHT22;11089;49.852;19.700;2022-09-27T04:51:06;7.70;99.90
21849;DHT22;11089;49.852;19.700;2022-09-27T04:54:07;7.80;99.90
21849;DHT22;11089;49.852;19.700;2022-09-27T04:57:08;7.90;99.90
21849;DHT22;11089;49.852;19.700;2022-09-27T05:00:09;8.30;99.90
21849;DHT22;11089;49.852;19.700;2022-09-27T05:03:11;8.30;99.90
21849;DHT22;11089;49.852;19.700;2022-09-27T05:06:12;8.10;99.90
21849;DHT22;11089;49.852;19.700;2022-09-27T05:09:13;8.00;99.90
21849;DHT22;11089;49.852;19.700;2022-09-27T05:12:14;8.00;99.90
21849;DHT22;11089;49.852;19.700;2022-09-27T05:15:15;8.00;99.90
21849;DHT22;11089;49.852;19.700;2022-09-27T05:18:16;8.00;99.90
21849;DHT22;11089;49.852;19.700;2022-09-27T05:21:17;8.00;99.90
21849;DHT22;11089;49.852;19.700;2022-09-27T05:24:18;8.10;99.90
21849;DHT22;11089;49.852;19.700;2022-09-27T05:27:21;8.00;99.90
21849;DHT22;11089;49.852;19.700;2022-09-27T05:30:22;8.10;99.90
21849;DHT22;11089;49.852;19.700;2022-09-27T05:33:23;8.00;99.90
21849;DHT22;11089;49.852;19.700;2022-09-27T05:36:24;8.00;99.90
21849;DHT22;11089;49.852;19.700;2022-09-27T05:39:25;8.00;99.90
21849;DHT22;11089;49.852;19.700;2022-09-27T05:42:26;8.00;99.90
21849;DHT22;11089;49.852;19.700;2022-09-27T05:45:27;8.10;99.90
21849;DHT22;11089;49.852;19.700;2022-09-27T05:48:28;8.20;99.90
21849;DHT22;11089;49.852;19.700;2022-09-27T05:51:30;8.30;99.90
21849;DHT22;11089;49.852;19.700;2022-09-27T05:54:31;8.40;99.90
21849;DHT22;11089;49.852;19.700;2022-09-27T05:57:32;8.50;99.90
21849;DHT22;11089;49.852;19.700;2022-09-27T06:00:34;8.50;99.90
21849;DHT22;11089;49.852;19.700;2022-09-27T06:03:36;8.60;99.90
21849;DHT22;11089;49.852;19.700;2022-09-27T06:06:37;8.70;99.90
21849;DHT22;11089;49.852;19.700;2022-09-27T06:09:38;8.80;99.90
21849;DHT22;11089;49.852;19.700;2022-09-27T06:12:38;8.80;99.90
21849;DHT22;11089;49.852;19.700;2022-09-27T06:15:41;9.00;99.90
21849;DHT22;11089;49.852;19.700;2022-09-27T06:18:43;9.00;99.90
21849;DHT22;11089;49.852;19.700;2022-09-27T06:21:43;9.10;99.90
21849;DHT22;11089;49.852;19.700;2022-09-27T06:24:44;9.30;99.90
21849;DHT22;11089;49.852;19.700;2022-09-27T06:27:45;9.50;99.90
21849;DHT22;11089;49.852;19.700;2022-09-27T06:30:48;9.60;99.90
21849;DHT22;11089;49.852;19.700;2022-09-27T06:33:50;9.70;99.90
21849;DHT22;11089;49.852;19.700;2022-09-27T06:36:51;9.90;99.90
21849;DHT22;11089;49.852;19.700;2022-09-27T06:39:52;10.10;99.90
21849;DHT22;11089;49.852;19.700;2022-09-27T06:42:53;10.10;99.90
21849;DHT22;11089;49.852;19.700;2022-09-27T06:45:55;10.40;99.90
21849;DHT22;11089;49.852;19.700;2022-09-27T06:48:55;10.60;99.90
21849;DHT22;11089;49.852;19.700;2022-09-27T06:51:56;10.80;99.90
21849;DHT22;11089;49.852;19.700;2022-09-27T06:54:57;10.90;99.90
21849;DHT22;11089;49.852;19.700;2022-09-27T06:58:00;11.10;99.90
21849;DHT22;11089;49.852;19.700;2022-09-27T07:01:28;11.30;99.90
21849;DHT22;11089;49.852;19.700;2022-09-27T07:04:29;11.50;99.90
21849;DHT22;11089;49.852;19.700;2022-09-27T07:07:30;11.70;99.90
21849;DHT22;11089;49.852;19.700;2022-09-27T07:10:34;11.90;99.90
21849;DHT22;11089;49.852;19.700;2022-09-27T07:13:37;11.90;99.50
21849;DHT22;11089;49.852;19.700;2022-09-27T07:16:43;12.10;96.50
21849;DHT22;11089;49.852;19.700;2022-09-27T07:19:45;12.20;94.90
21849;DHT22;11089;49.852;19.700;2022-09-27T07:22:46;12.40;92.30
21849;DHT22;11089;49.852;19.700;2022-09-27T07:25:47;12.60;92.30
21849;DHT22;11089;49.852;19.700;2022-09-27T07:28:48;12.80;90.90
21849;DHT22;11089;49.852;19.700;2022-09-27T07:31:49;12.90;97.20
21849;DHT22;11089;49.852;19.700;2022-09-27T07:34:52;13.10;95.70
21849;DHT22;11089;49.852;19.700;2022-09-27T07:37:52;13.40;92.10
21849;DHT22;11089;49.852;19.700;2022-09-27T07:40:54;13.60;95.80
21849;DHT22;11089;49.852;19.700;2022-09-27T07:43:56;13.80;84.40
21849;DHT22;11089;49.852;19.700;2022-09-27T07:46:57;13.90;57.10
21849;DHT22;11089;49.852;19.700;2022-09-27T07:49:58;14.10;72.50
21849;DHT22;11089;49.852;19.700;2022-09-27T07:52:59;14.30;68.30
21849;DHT22;11089;49.852;19.700;2022-09-27T07:56:00;14.50;50.80
21849;DHT22;11089;49.852;19.700;2022-09-27T07:59:01;14.80;67.80
21849;DHT22;11089;49.852;19.700;2022-09-27T08:02:03;14.90;67.60
21849;DHT22;11089;49.852;19.700;2022-09-27T08:05:04;15.20;38.10
21849;DHT22;11089;49.852;19.700;2022-09-27T08:08:05;15.40;16.40
21849;DHT22;11089;49.852;19.700;2022-09-27T08:11:16;15.70;1.00
21849;DHT22;11089;49.852;19.700;2022-09-27T08:14:18;16.10;1.00
21849;DHT22;11089;49.852;19.700;2022-09-27T08:17:20;16.50;1.00
21849;DHT22;11089;49.852;19.700;2022-09-27T08:20:21;16.80;1.00
21849;DHT22;11089;49.852;19.700;2022-09-27T08:23:22;17.50;1.00
21849;DHT22;11089;49.852;19.700;2022-09-27T08:26:26;19.50;99.90
21849;DHT22;11089;49.852;19.700;2022-09-27T08:29:27;20.60;99.90
21849;DHT22;11089;49.852;19.700;2022-09-27T08:32:28;21.30;1.00
21849;DHT22;11089;49.852;19.700;2022-09-27T08:35:31;22.90;1.00
21849;DHT22;11089;49.852;19.700;2022-09-27T08:38:33;23.50;99.90
21849;DHT22;11089;49.852;19.700;2022-09-27T08:42:23;23.40;99.90
21849;DHT22;11089;49.852;19.700;2022-09-27T08:45:10;25.60;99.90
21849;DHT22;11089;49.852;19.700;2022-09-27T08:48:12;27.50;99.90
21849;DHT22;11089;49.852;19.700;2022-09-27T08:51:14;27.00;99.90
21849;DHT22;11089;49.852;19.700;2022-09-27T08:54:30;29.10;99.90
21849;DHT22;11089;49.852;19.700;2022-09-27T08:57:32;30.40;99.90
21849;DHT22;11089;49.852;19.700;2022-09-27T09:00:33;29.50;99.90
21849;DHT22;11089;49.852;19.700;2022-09-27T09:03:42;31.20;99.90
21849;DHT22;11089;49.852;19.700;2022-09-27T09:06:59;31.50;99.90
21849;DHT22;11089;49.852;19.700;2022-09-27T09:20:25;30.80;99.90
21849;DHT22;11089;49.852;19.700;2022-09-27T09:30:27;24.90;99.90
21849;DHT22;11089;49.852;19.700;2022-09-27T09:33:35;24.50;99.90
21849;DHT22;11089;49.852;19.700;2022-09-27T09:36:46;24.50;99.90
21849;DHT22;11089;49.852;19.700;2022-09-27T09:39:56;25.60;99.90
21849;DHT22;11089;49.852;19.700;2022-09-27T09:43:09;28.30;99.90
21849;DHT22;11089;49.852;19.700;2022-09-27T09:49:40;30.60;99.90
21849;DHT22;11089;49.852;19.700;2022-09-27T09:52:56;28.10;99.90
21849;DHT22;11089;49.852;19.700;2022-09-27T09:56:06;26.70;99.90
21849;DHT22;11089;49.852;19.700;2022-09-27T09:59:23;26.00;99.90
21849;DHT22;11089;49.852;19.700;2022-09-27T10:02:33;25.50;99.90
21849;DHT22;11089;49.852;19.700;2022-09-27T10:05:34;28.10;99.90
21849;DHT22;11089;49.852;19.700;2022-09-27T10:08:35;30.80;99.90
21849;DHT22;11089;49.852;19.700;2022-09-27T10:11:40;30.50;99.90
21849;DHT22;11089;49.852;19.700;2022-09-27T10:14:45;28.60;99.90
21849;DHT22;11089;49.852;19.700;2022-09-27T10:17:52;26.80;99.90
21849;DHT22;11089;49.852;19.700;2022-09-27T10:21:00;25.60;99.90
21849;DHT22;11089;49.852;19.700;2022-09-27T10:24:11;24.50;99.90
21849;DHT22;11089;49.852;19.700;2022-09-27T10:27:12;23.90;99.90
21849;DHT22;11089;49.852;19.700;2022-09-27T10:30:28;24.80;99.90
21849;DHT22;11089;49.852;19.700;2022-09-27T10:33:31;23.70;99.90
21849;DHT22;11089;49.852;19.700;2022-09-27T10:36:34;23.20;99.90
21849;DHT22;11089;49.852;19.700;2022-09-27T10:39:35;26.10;99.90
21849;DHT22;11089;49.852;19.700;2022-09-27T10:42:37;28.00;99.90
21849;DHT22;11089;49.852;19.700;2022-09-27T10:45:38;29.90;99.90
21849;DHT22;11089;49.852;19.700;2022-09-27T10:48:40;30.50;99.90
21849;DHT22;11089;49.852;19.700;2022-09-27T10:51:48;30.50;99.90
21849;DHT22;11089;49.852;19.700;2022-09-27T10:54:57;31.30;99.90
21849;DHT22;11089;49.852;19.700;2022-09-27T10:57:59;31.60;99.90
21849;DHT22;11089;49.852;19.700;2022-09-27T11:01:05;32.60;99.90
21849;DHT22;11089;49.852;19.700;2022-09-27T11:04:25;33.50;99.90
21849;DHT22;11089;49.852;19.700;2022-09-27T11:07:27;31.60;99.90
21849;DHT22;11089;49.852;19.700;2022-09-27T11:10:33;30.10;99.90
21849;DHT22;11089;49.852;19.700;2022-09-27T11:13:35;30.20;99.90
21849;DHT22;11089;49.852;19.700;2022-09-27T11:23:16;25.10;99.90
21849;DHT22;11089;49.852;19.700;2022-09-27T11:36:56;23.60;99.90
21849;DHT22;11089;49.852;19.700;2022-09-27T11:59:54;22.40;99.90
21849;DHT22;11089;49.852;19.700;2022-09-27T12:06:49;21.60;99.90
21849;DHT22;11089;49.852;19.700;2022-09-27T12:09:56;21.50;99.90
21849;DHT22;11089;49.852;19.700;2022-09-27T12:13:01;21.10;99.90
21849;DHT22;11089;49.852;19.700;2022-09-27T12:16:03;21.10;99.90
21849;DHT22;11089;49.852;19.700;2022-09-27T12:19:14;21.20;99.90
21849;DHT22;11089;49.852;19.700;2022-09-27T12:22:47;21.20;99.90
21849;DHT22;11089;49.852;19.700;2022-09-27T12:25:45;20.90;99.90
21849;DHT22;11089;49.852;19.700;2022-09-27T12:35:27;20.60;99.90
21849;DHT22;11089;49.852;19.700;2022-09-27T12:42:17;20.50;99.90
21849;DHT22;11089;49.852;19.700;2022-09-27T12:45:48;20.50;99.90
21849;DHT22;11089;49.852;19.700;2022-09-27T12:49:08;20.30;99.90
21849;DHT22;11089;49.852;19.700;2022-09-27T12:52:17;20.10;99.90
21849;DHT22;11089;49.852;19.700;2022-09-27T12:55:28;19.80;99.90
21849;DHT22;11089;49.852;19.700;2022-09-27T13:12:21;19.40;1.00
21849;DHT22;11089;49.852;19.700;2022-09-27T13:15:32;19.30;1.00
21849;DHT22;11089;49.852;19.700;2022-09-27T13:24:50;18.90;99.90
21849;DHT22;11089;49.852;19.700;2022-09-27T13:27:51;19.00;1.00
21849;DHT22;11089;49.852;19.700;2022-09-27T13:30:54;18.90;1.00
21849;DHT22;11089;49.852;19.700;2022-09-27T13:33:55;19.00;1.00
21849;DHT22;11089;49.852;19.700;2022-09-27T13:36:56;18.80;1.00
21849;DHT22;11089;49.852;19.700;2022-09-27T13:44:03;18.80;1.00
21849;DHT22;11089;49.852;19.700;2022-09-27T13:46:50;18.80;1.00
21849;DHT22;11089;49.852;19.700;2022-09-27T13:49:57;18.60;1.00
21849;DHT22;11089;49.852;19.700;2022-09-27T13:56:48;18.50;1.00
21849;DHT22;11089;49.852;19.700;2022-09-27T13:59:49;18.20;99.90
21849;DHT22;11089;49.852;19.700;2022-09-27T14:02:59;18.00;1.00
21849;DHT22;11089;49.852;19.700;2022-09-27T14:06:06;18.00;99.90
21849;DHT22;11089;49.852;19.700;2022-09-27T14:09:19;17.80;1.00
21849;DHT22;11089;49.852;19.700;2022-09-27T14:12:25;17.60;1.00
21849;DHT22;11089;49.852;19.700;2022-09-27T14:15:28;17.50;1.00
21849;DHT22;11089;49.852;19.700;2022-09-27T14:18:30;17.20;1.00
21849;DHT22;11089;49.852;19.700;2022-09-27T14:21:37;17.20;1.00
21849;DHT22;11089;49.852;19.700;2022-09-27T14:27:39;17.10;99.90
21849;DHT22;11089;49.852;19.700;2022-09-27T14:30:40;16.90;1.00
21849;DHT22;11089;49.852;19.700;2022-09-27T14:33:42;16.60;1.00
21849;DHT22;11089;49.852;19.700;2022-09-27T14:36:44;16.60;1.00
21849;DHT22;11089;49.852;19.700;2022-09-27T14:40:01;16.50;99.90
21849;DHT22;11089;49.852;19.700;2022-09-27T14:43:09;16.30;4.80
21849;DHT22;11089;49.852;19.700;2022-09-27T14:46:40;16.30;99.90
21849;DHT22;11089;49.852;19.700;2022-09-27T14:49:52;16.10;1.00
21849;DHT22;11089;49.852;19.700;2022-09-27T14:52:53;15.90;1.00
21849;DHT22;11089;49.852;19.700;2022-09-27T14:55:56;16.00;1.00
21849;DHT22;11089;49.852;19.700;2022-09-27T14:59:12;15.90;1.00
21849;DHT22;11089;49.852;19.700;2022-09-27T15:02:20;15.90;99.90
21849;DHT22;11089;49.852;19.700;2022-09-27T15:05:25;15.80;1.00
21849;DHT22;11089;49.852;19.700;2022-09-27T15:08:28;15.80;1.00
21849;DHT22;11089;49.852;19.700;2022-09-27T15:11:35;15.90;1.00
21849;DHT22;11089;49.852;19.700;2022-09-27T15:14:39;15.60;1.00
21849;DHT22;11089;49.852;19.700;2022-09-27T15:17:43;15.50;1.00
21849;DHT22;11089;49.852;19.700;2022-09-27T15:20:52;15.30;99.90
21849;DHT22;11089;49.852;19.700;2022-09-27T15:23:53;15.00;99.90
21849;DHT22;11089;49.852;19.700;2022-09-27T15:26:55;14.60;99.90
21849;DHT22;11089;49.852;19.700;2022-09-27T15:29:58;14.40;99.90
21849;DHT22;11089;49.852;19.700;2022-09-27T15:32:59;14.10;1.00
21849;DHT22;11089;49.852;19.700;2022-09-27T15:36:07;13.90;1.00
21849;DHT22;11089;49.852;19.700;2022-09-27T15:39:08;14.00;1.00
21849;DHT22;11089;49.852;19.700;2022-09-27T15:42:13;13.90;99.90
21849;DHT22;11089;49.852;19.700;2022-09-27T15:45:32;13.70;1.00
21849;DHT22;11089;49.852;19.700;2022-09-27T15:48:34;13.50;1.00
21849;DHT22;11089;49.852;19.700;2022-09-27T15:51:39;13.40;1.00
21849;DHT22;11089;49.852;19.700;2022-09-27T15:54:40;13.20;1.00
21849;DHT22;11089;49.852;19.700;2022-09-27T15:57:42;13.10;3.10
21849;DHT22;11089;49.852;19.700;2022-09-27T16:00:56;12.90;99.90
21849;DHT22;11089;49.852;19.700;2022-09-27T16:03:58;13.00;99.90
21849;DHT22;11089;49.852;19.700;2022-09-27T16:07:00;13.00;1.00
21849;DHT22;11089;49.852;19.700;2022-09-27T16:10:15;12.70;1.00
21849;DHT22;11089;49.852;19.700;2022-09-27T16:13:17;12.70;99.90
21849;DHT22;11089;49.852;19.700;2022-09-27T16:16:19;12.70;99.90
21849;DHT22;11089;49.852;19.700;2022-09-27T16:19:21;12.70;1.00
21849;DHT22;11089;49.852;19.700;2022-09-27T16:22:22;12.70;1.00
21849;DHT22;11089;49.852;19.700;2022-09-27T16:25:24;12.60;1.00
21849;DHT22;11089;49.852;19.700;2022-09-27T16:28:25;12.40;1.00
21849;DHT22;11089;49.852;19.700;2022-09-27T16:31:26;12.60;1.00
21849;DHT22;11089;49.852;19.700;2022-09-27T16:34:27;12.60;1.00
21849;DHT22;11089;49.852;19.700;2022-09-27T16:37:28;12.50;1.00
21849;DHT22;11089;49.852;19.700;2022-09-27T16:40:29;12.50;1.00
21849;DHT22;11089;49.852;19.700;2022-09-27T16:43:31;12.30;1.00
21849;DHT22;11089;49.852;19.700;2022-09-27T16:46:33;12.30;1.00
21849;DHT22;11089;49.852;19.700;2022-09-27T16:49:34;12.50;1.00
21849;DHT22;11089;49.852;19.700;2022-09-27T16:52:49;12.40;1.00
21849;DHT22;11089;49.852;19.700;2022-09-27T16:55:52;12.30;1.00
21849;DHT22;11089;49.852;19.700;2022-09-27T16:58:53;12.30;1.00
21849;DHT22;11089;49.852;19.700;2022-09-27T17:01:54;12.20;1.00
21849;DHT22;11089;49.852;19.700;2022-09-27T17:04:56;12.10;1.00
21849;DHT22;11089;49.852;19.700;2022-09-27T17:07:57;12.10;1.00
21849;DHT22;11089;49.852;19.700;2022-09-27T17:10:59;12.00;1.00
21849;DHT22;11089;49.852;19.700;2022-09-27T17:14:00;12.20;1.00
21849;DHT22;11089;49.852;19.700;2022-09-27T17:17:00;12.20;1.00
21849;DHT22;11089;49.852;19.700;2022-09-27T17:20:01;12.20;1.00
21849;DHT22;11089;49.852;19.700;2022-09-27T17:23:02;12.40;1.00
21849;DHT22;11089;49.852;19.700;2022-09-27T17:29:14;12.20;1.00
21849;DHT22;11089;49.852;19.700;2022-09-27T17:32:15;12.20;1.00
21849;DHT22;11089;49.852;19.700;2022-09-27T17:35:16;12.00;1.00
21849;DHT22;11089;49.852;19.700;2022-09-27T17:38:17;12.00;1.00
21849;DHT22;11089;49.852;19.700;2022-09-27T17:41:21;12.00;1.00
21849;DHT22;11089;49.852;19.700;2022-09-27T17:44:25;12.00;1.00
21849;DHT22;11089;49.852;19.700;2022-09-27T17:47:26;11.90;1.00
21849;DHT22;11089;49.852;19.700;2022-09-27T17:50:45;11.90;1.00
21849;DHT22;11089;49.852;19.700;2022-09-27T17:53:46;11.80;1.00
21849;DHT22;11089;49.852;19.700;2022-09-27T17:56:48;11.90;1.00
21849;DHT22;11089;49.852;19.700;2022-09-27T17:59:49;11.90;1.00
21849;DHT22;11089;49.852;19.700;2022-09-27T18:02:50;12.00;1.00
21849;DHT22;11089;49.852;19.700;2022-09-27T18:05:52;12.00;1.00
21849;DHT22;11089;49.852;19.700;2022-09-27T18:08:54;12.20;1.00
21849;DHT22;11089;49.852;19.700;2022-09-27T18:11:55;12.20;1.00
21849;DHT22;11089;49.852;19.700;2022-09-27T18:14:57;12.20;1.00
21849;DHT22;11089;49.852;19.700;2022-09-27T18:17:58;12.20;1.00
21849;DHT22;11089;49.852;19.700;2022-09-27T18:21:00;12.20;1.00
21849;DHT22;11089;49.852;19.700;2022-09-27T18:24:03;12.10;1.00
21849;DHT22;11089;49.852;19.700;2022-09-27T18:27:05;12.10;1.00
21849;DHT22;11089;49.852;19.700;2022-09-27T18:30:07;12.10;1.00
21849;DHT22;11089;49.852;19.700;2022-09-27T18:33:09;12.10;1.00
21849;DHT22;11089;49.852;19.700;2022-09-27T18:36:24;12.00;1.00
21849;DHT22;11089;49.852;19.700;2022-09-27T18:39:25;12.10;1.00
21849;DHT22;11089;49.852;19.700;2022-09-27T18:42:26;12.10;1.00
21849;DHT22;11089;49.852;19.700;2022-09-27T18:45:27;12.00;1.00
21849;DHT22;11089;49.852;19.700;2022-09-27T18:48:33;12.00;1.00
21849;DHT22;11089;49.852;19.700;2022-09-27T18:51:34;12.00;1.00
21849;DHT22;11089;49.852;19.700;2022-09-27T18:54:37;12.00;1.00
21849;DHT22;11089;49.852;19.700;2022-09-27T18:57:40;11.90;1.00
21849;DHT22;11089;49.852;19.700;2022-09-27T19:00:42;11.90;1.00
21849;DHT22;11089;49.852;19.700;2022-09-27T19:03:44;11.90;1.00
21849;DHT22;11089;49.852;19.700;2022-09-27T19:06:45;11.90;1.00
21849;DHT22;11089;49.852;19.700;2022-09-27T19:09:46;11.90;1.00
21849;DHT22;11089;49.852;19.700;2022-09-27T19:12:47;11.90;1.00
21849;DHT22;11089;49.852;19.700;2022-09-27T19:15:55;11.80;1.00
21849;DHT22;11089;49.852;19.700;2022-09-27T19:18:57;11.90;1.00
21849;DHT22;11089;49.852;19.700;2022-09-27T19:21:58;11.70;1.00
21849;DHT22;11089;49.852;19.700;2022-09-27T19:24:59;11.70;1.00
21849;DHT22;11089;49.852;19.700;2022-09-27T19:28:01;11.70;1.00
21849;DHT22;11089;49.852;19.700;2022-09-27T19:31:06;11.70;1.00
21849;DHT22;11089;49.852;19.700;2022-09-27T19:34:07;11.60;1.00
21849;DHT22;11089;49.852;19.700;2022-09-27T19:37:08;11.60;1.00
21849;DHT22;11089;49.852;19.700;2022-09-27T19:40:09;11.60;1.00
21849;DHT22;11089;49.852;19.700;2022-09-27T19:43:10;11.60;1.00
21849;DHT22;11089;49.852;19.700;2022-09-27T19:46:13;11.60;1.00
21849;DHT22;11089;49.852;19.700;2022-09-27T19:49:17;11.60;1.00
21849;DHT22;11089;49.852;19.700;2022-09-27T19:52:18;11.60;1.00
21849;DHT22;11089;49.852;19.700;2022-09-27T19:55:19;11.60;1.00
21849;DHT22;11089;49.852;19.700;2022-09-27T19:58:20;11.60;1.00
21849;DHT22;11089;49.852;19.700;2022-09-27T20:01:24;11.60;1.00
21849;DHT22;11089;49.852;19.700;2022-09-27T20:04:26;11.60;1.00
21849;DHT22;11089;49.852;19.700;2022-09-27T20:07:27;11.60;1.00
21849;DHT22;11089;49.852;19.700;2022-09-27T20:10:28;11.60;1.00
21849;DHT22;11089;49.852;19.700;2022-09-27T20:13:30;11.60;1.00
21849;DHT22;11089;49.852;19.700;2022-09-27T20:16:31;11.50;1.00
21849;DHT22;11089;49.852;19.700;2022-09-27T20:19:32;11.50;1.00
21849;DHT22;11089;49.852;19.700;2022-09-27T20:22:33;11.50;1.00
21849;DHT22;11089;49.852;19.700;2022-09-27T20:25:34;11.50;1.00
21849;DHT22;11089;49.852;19.700;2022-09-27T20:28:47;11.50;1.00
21849;DHT22;11089;49.852;19.700;2022-09-27T20:31:48;11.30;1.00
21849;DHT22;11089;49.852;19.700;2022-09-27T20:34:49;11.30;1.00
21849;DHT22;11089;49.852;19.700;2022-09-27T20:37:51;11.30;1.00
21849;DHT22;11089;49.852;19.700;2022-09-27T20:40:53;11.30;1.00
21849;DHT22;11089;49.852;19.700;2022-09-27T20:44:00;11.40;1.00
21849;DHT22;11089;49.852;19.700;2022-09-27T20:47:03;11.40;1.00
21849;DHT22;11089;49.852;19.700;2022-09-27T20:50:04;11.40;1.00
21849;DHT22;11089;49.852;19.700;2022-09-27T20:53:05;11.40;1.00
21849;DHT22;11089;49.852;19.700;2022-09-27T20:56:17;11.40;9.90
21849;DHT22;11089;49.852;19.700;2022-09-27T20:59:20;11.40;5.20
21849;DHT22;11089;49.852;19.700;2022-09-27T21:02:21;11.30;1.00
21849;DHT22;11089;49.852;19.700;2022-09-27T21:05:22;11.40;4.40
21849;DHT22;11089;49.852;19.700;2022-09-27T21:08:24;11.30;1.00
21849;DHT22;11089;49.852;19.700;2022-09-27T21:11:25;11.30;3.70
21849;DHT22;11089;49.852;19.700;2022-09-27T21:14:26;11.30;11.30
21849;DHT22;11089;49.852;19.700;2022-09-27T21:17:27;11.30;9.80
21849;DHT22;11089;49.852;19.700;2022-09-27T21:20:28;11.40;16.10
21849;DHT22;11089;49.852;19.700;2022-09-27T21:23:30;11.30;1.00
21849;DHT22;11089;49.852;19.700;2022-09-27T21:26:32;11.30;1.00
21849;DHT22;11089;49.852;19.700;2022-09-27T21:29:33;11.20;7.80
21849;DHT22;11089;49.852;19.700;2022-09-27T21:32:34;11.30;11.20
21849;DHT22;11089;49.852;19.700;2022-09-27T21:35:36;11.20;1.00
21849;DHT22;11089;49.852;19.700;2022-09-27T21:38:37;11.30;1.00
21849;DHT22;11089;49.852;19.700;2022-09-27T21:41:38;11.20;2.80
21849;DHT22;11089;49.852;19.700;2022-09-27T21:44:39;11.30;1.00
21849;DHT22;11089;49.852;19.700;2022-09-27T21:47:40;11.20;1.00
21849;DHT22;11089;49.852;19.700;2022-09-27T21:50:42;11.20;1.00